createdAt,value
2019-04-01T00:00:42.790Z,5.40
2019-04-01T00:03:11.954Z,5.30
2019-04-01T00:05:40.833Z,5.30
2019-04-01T00:08:09.871Z,5.30
2019-04-01T00:10:38.686Z,5.30
2019-04-01T00:13:07.523Z,5.30
2019-04-01T00:15:36.555Z,5.20
2019-04-01T00:18:05.417Z,5.20
2019-04-01T00:20:34.530Z,5.20
2019-04-01T00:23:03.623Z,5.20
2019-04-01T00:25:33.339Z,5.10
2019-04-01T00:28:02.159Z,5.10
2019-04-01T00:30:31.248Z,5.10
2019-04-01T00:33:00.431Z,5.10
2019-04-01T00:35:29.287Z,5.00
2019-04-01T00:37:58.614Z,5.00
2019-04-01T00:40:27.710Z,5.00
2019-04-01T00:43:20.364Z,4.90
2019-04-01T00:45:50.222Z,4.90
2019-04-01T00:48:19.070Z,4.90
2019-04-01T00:50:47.866Z,4.80
2019-04-01T00:53:18.103Z,4.90
2019-04-01T00:55:47.580Z,4.80
2019-04-01T00:58:16.657Z,4.80
2019-04-01T01:00:45.529Z,4.70
2019-04-01T01:03:14.683Z,4.70
2019-04-01T01:05:43.757Z,4.70
2019-04-01T01:08:12.524Z,4.60
2019-04-01T01:10:41.436Z,4.60
2019-04-01T01:13:10.539Z,4.60
2019-04-01T01:15:39.339Z,4.60
2019-04-01T01:18:08.128Z,4.60
2019-04-01T01:20:37.000Z,4.50
2019-04-01T01:23:05.781Z,4.50
2019-04-01T01:25:34.990Z,4.50
2019-04-01T01:28:03.915Z,4.40
2019-04-01T01:30:42.392Z,4.40
2019-04-01T01:33:11.509Z,4.40
2019-04-01T01:35:41.004Z,4.30
2019-04-01T01:38:10.524Z,4.30
2019-04-01T01:40:39.718Z,4.30
2019-04-01T01:43:08.803Z,4.30
2019-04-01T01:45:37.884Z,4.20
2019-04-01T01:48:07.015Z,4.30
2019-04-01T01:50:36.110Z,4.20
2019-04-01T01:53:04.979Z,4.20
2019-04-01T01:55:34.482Z,4.20
2019-04-01T01:58:04.206Z,4.20
2019-04-01T02:00:34.052Z,4.10
2019-04-01T02:03:03.160Z,4.10
2019-04-01T02:05:32.200Z,4.10
2019-04-01T02:08:01.004Z,4.10
2019-04-01T02:10:30.092Z,4.10
2019-04-01T02:12:59.295Z,4.00
2019-04-01T02:15:28.380Z,4.00
2019-04-01T02:17:57.687Z,4.00
2019-04-01T02:20:26.444Z,4.00
2019-04-01T02:22:55.523Z,4.00
2019-04-01T02:25:24.314Z,3.90
2019-04-01T02:27:53.353Z,3.90
2019-04-01T02:30:22.446Z,3.90
2019-04-01T02:32:51.496Z,3.90
2019-04-01T02:35:20.642Z,3.90
2019-04-01T02:37:49.835Z,3.80
2019-04-01T02:40:21.906Z,3.80
2019-04-01T02:42:50.108Z,3.80
2019-04-01T02:45:19.098Z,3.80
2019-04-01T02:47:47.850Z,3.70
2019-04-01T02:50:16.693Z,3.70
2019-04-01T02:52:45.708Z,3.70
2019-04-01T02:55:14.489Z,3.70
2019-04-01T02:57:43.598Z,3.60
2019-04-01T03:00:13.417Z,3.60
2019-04-01T03:02:42.800Z,3.60
2019-04-01T03:05:11.730Z,3.60
2019-04-01T03:07:40.931Z,3.60
2019-04-01T03:10:10.289Z,3.50
2019-04-01T03:12:39.740Z,3.50
2019-04-01T03:15:09.237Z,3.50
2019-04-01T03:17:44.485Z,3.50
2019-04-01T03:20:13.678Z,3.50
2019-04-01T03:22:42.481Z,3.50
2019-04-01T03:25:11.555Z,3.40
2019-04-01T03:27:40.657Z,3.40
2019-04-01T03:30:09.754Z,3.40
2019-04-01T03:32:44.580Z,3.40
2019-04-01T03:35:10.317Z,3.40
2019-04-01T03:37:39.811Z,3.30
2019-04-01T03:40:08.728Z,3.20
2019-04-01T03:42:37.794Z,3.20
2019-04-01T03:45:07.095Z,3.20
2019-04-01T03:47:35.930Z,3.10
2019-04-01T03:50:11.040Z,3.10
2019-04-01T03:52:39.809Z,3.10
2019-04-01T03:55:08.674Z,3.10
2019-04-01T03:57:37.692Z,3.10
2019-04-01T04:00:06.808Z,3.00
2019-04-01T04:02:36.008Z,3.00
2019-04-01T04:05:05.494Z,2.90
2019-04-01T04:07:34.627Z,2.90
2019-04-01T04:10:04.535Z,2.90
2019-04-01T04:12:33.664Z,2.80
2019-04-01T04:15:02.695Z,2.80
2019-04-01T04:17:31.699Z,2.80
2019-04-01T04:20:00.890Z,2.80
2019-04-01T04:22:29.980Z,2.70
2019-04-01T04:24:59.079Z,2.70
2019-04-01T04:27:28.259Z,2.70
2019-04-01T04:29:57.369Z,2.70
2019-04-01T04:32:26.782Z,2.60
2019-04-01T04:34:57.479Z,2.60
2019-04-01T04:37:26.756Z,2.60
2019-04-01T04:39:55.826Z,2.60
2019-04-01T04:42:24.616Z,2.60
2019-04-01T04:44:53.732Z,2.60
2019-04-01T04:47:22.515Z,2.60
2019-04-01T04:49:51.516Z,2.60
2019-04-01T04:52:20.865Z,2.50
2019-04-01T04:54:49.940Z,2.50
2019-04-01T04:57:20.459Z,2.50
2019-04-01T04:59:49.375Z,2.50
2019-04-01T05:02:18.960Z,2.50
2019-04-01T05:04:47.811Z,2.50
2019-04-01T05:07:17.287Z,2.40
2019-04-01T05:09:46.288Z,2.40
2019-04-01T05:12:15.668Z,2.40
2019-04-01T05:14:44.765Z,2.40
2019-04-01T05:17:14.056Z,2.40
2019-04-01T05:19:43.326Z,2.30
2019-04-01T05:22:13.140Z,2.30
2019-04-01T05:24:42.288Z,2.30
2019-04-01T05:27:14.019Z,2.30
2019-04-01T05:29:44.192Z,2.30
2019-04-01T05:32:16.093Z,2.30
2019-04-01T05:34:46.933Z,2.40
2019-04-01T05:37:16.641Z,2.40
2019-04-01T05:39:46.296Z,2.40
2019-04-01T05:42:15.480Z,2.50
2019-04-01T05:44:45.172Z,2.50
2019-04-01T05:47:14.335Z,2.50
2019-04-01T05:49:43.511Z,2.60
2019-04-01T05:52:12.778Z,2.60
2019-04-01T05:54:42.522Z,2.60
2019-04-01T05:57:11.428Z,2.70
2019-04-01T05:59:40.280Z,2.70
2019-04-01T06:02:09.459Z,2.70
2019-04-01T06:04:38.549Z,2.80
2019-04-01T06:07:07.600Z,2.80
2019-04-01T06:09:36.459Z,2.90
2019-04-01T06:12:05.715Z,2.90
2019-04-01T06:14:34.839Z,3.00
2019-04-01T06:17:03.843Z,3.10
2019-04-01T06:19:32.819Z,3.10
2019-04-01T06:22:02.062Z,3.20
2019-04-01T06:24:31.002Z,3.20
2019-04-01T06:27:00.448Z,3.30
2019-04-01T06:29:29.741Z,3.40
2019-04-01T06:31:58.787Z,3.50
2019-04-01T06:34:27.954Z,3.60
2019-04-01T06:36:57.123Z,3.70
2019-04-01T06:39:26.515Z,3.80
2019-04-01T06:41:55.751Z,3.90
2019-04-01T06:44:24.942Z,4.00
2019-04-01T06:46:54.310Z,4.10
2019-04-01T06:49:23.831Z,4.20
2019-04-01T06:51:52.927Z,4.30
2019-04-01T06:54:22.175Z,4.40
2019-04-01T06:56:51.098Z,4.40
2019-04-01T06:59:20.320Z,4.50
2019-04-01T07:01:49.073Z,4.70
2019-04-01T07:04:18.106Z,4.80
2019-04-01T07:06:50.023Z,4.80
2019-04-01T07:09:23.628Z,5.00
2019-04-01T07:11:52.394Z,5.10
2019-04-01T07:14:21.650Z,5.20
2019-04-01T07:16:50.851Z,5.30
2019-04-01T07:19:20.163Z,5.50
2019-04-01T07:21:49.201Z,5.60
2019-04-01T07:24:18.563Z,5.70
2019-04-01T07:26:47.738Z,5.80
2019-04-01T07:29:17.625Z,5.90
2019-04-01T07:31:48.703Z,6.10
2019-04-01T07:34:17.908Z,6.20
2019-04-01T07:36:47.075Z,6.30
2019-04-01T07:39:16.131Z,6.50
2019-04-01T07:41:46.833Z,6.60
2019-04-01T07:44:15.796Z,6.80
2019-04-01T07:46:45.212Z,6.90
2019-04-01T07:49:14.885Z,7.00
2019-04-01T07:51:43.941Z,7.10
2019-04-01T07:54:13.211Z,7.30
2019-04-01T07:56:42.423Z,7.40
2019-04-01T07:59:11.314Z,7.50
2019-04-01T08:01:40.251Z,7.60
2019-04-01T08:04:09.140Z,7.70
2019-04-01T08:06:38.552Z,7.80
2019-04-01T08:09:07.594Z,7.90
2019-04-01T08:11:36.447Z,8.00
2019-04-01T08:14:05.961Z,8.10
2019-04-01T08:16:35.443Z,8.30
2019-04-01T08:19:04.653Z,8.40
2019-04-01T08:21:33.917Z,8.50
2019-04-01T08:24:03.230Z,8.60
2019-04-01T08:26:32.743Z,8.70
2019-04-01T08:29:01.848Z,8.80
2019-04-01T08:31:30.721Z,8.90
2019-04-01T08:33:59.984Z,9.00
2019-04-01T08:36:30.633Z,9.10
2019-04-01T08:38:59.691Z,9.20
2019-04-01T08:41:28.543Z,9.30
2019-04-01T08:43:58.813Z,9.40
2019-04-01T08:46:27.756Z,9.50
2019-04-01T08:48:56.729Z,9.70
2019-04-01T08:51:25.970Z,9.80
2019-04-01T08:53:55.430Z,9.90
2019-04-01T08:56:24.744Z,10.00
2019-04-01T08:58:54.043Z,10.20
2019-04-01T09:01:34.681Z,10.30
2019-04-01T09:03:54.445Z,10.40
2019-04-01T09:06:23.399Z,10.50
2019-04-01T09:08:54.320Z,10.50
2019-04-01T09:11:23.768Z,10.60
2019-04-01T09:13:53.603Z,10.70
2019-04-01T09:16:23.191Z,10.80
2019-04-01T09:18:52.306Z,10.90
2019-04-01T09:21:21.521Z,11.00
2019-04-01T09:23:52.235Z,11.00
2019-04-01T09:26:21.874Z,11.10
2019-04-01T09:28:50.998Z,11.20
2019-04-01T09:31:20.135Z,11.30
2019-04-01T09:33:49.676Z,11.40
2019-04-01T09:36:18.853Z,11.50
2019-04-01T09:38:48.209Z,11.50
2019-04-01T09:41:17.726Z,11.60
2019-04-01T09:43:46.769Z,11.60
2019-04-01T09:46:15.900Z,11.70
2019-04-01T09:48:44.775Z,11.80
2019-04-01T09:51:20.368Z,11.90
2019-04-01T09:53:49.648Z,12.00
2019-04-01T09:56:18.766Z,12.10
2019-04-01T09:58:47.764Z,12.20
2019-04-01T10:01:16.788Z,12.20
2019-04-01T10:03:46.415Z,12.30
2019-04-01T10:06:15.539Z,12.40
2019-04-01T10:08:44.812Z,12.50
2019-04-01T10:11:13.660Z,12.50
2019-04-01T10:13:42.807Z,12.60
2019-04-01T10:16:11.910Z,12.60
2019-04-01T10:18:40.878Z,12.70
2019-04-01T10:21:10.145Z,12.80
2019-04-01T10:23:39.147Z,12.80
2019-04-01T10:26:08.455Z,12.90
2019-04-01T10:28:37.800Z,13.00
2019-04-01T10:31:06.856Z,13.10
2019-04-01T10:33:35.828Z,13.20
2019-04-01T10:36:05.038Z,13.30
2019-04-01T10:38:33.870Z,13.40
2019-04-01T10:41:03.269Z,13.40
2019-04-01T10:43:32.429Z,13.50
2019-04-01T10:46:01.587Z,13.60
2019-04-01T10:48:31.200Z,13.70
2019-04-01T10:51:00.294Z,13.80
2019-04-01T10:53:31.136Z,13.90
2019-04-01T10:56:00.525Z,14.00
2019-04-01T10:58:30.290Z,14.10
2019-04-01T11:01:00.355Z,14.20
2019-04-01T11:03:29.752Z,14.30
2019-04-01T11:06:01.388Z,14.40
2019-04-01T11:08:31.280Z,14.40
2019-04-01T11:11:01.067Z,14.50
2019-04-01T11:13:30.116Z,14.60
2019-04-01T11:15:59.224Z,14.70
2019-04-01T11:18:28.848Z,14.80
2019-04-01T11:20:59.405Z,15.00
2019-04-01T11:23:28.989Z,15.00
2019-04-01T11:25:57.847Z,15.10
2019-04-01T11:28:27.960Z,15.20
2019-04-01T11:30:57.320Z,15.40
2019-04-01T11:33:27.040Z,15.40
2019-04-01T11:35:55.941Z,15.50
2019-04-01T11:38:24.905Z,15.60
2019-04-01T11:40:54.248Z,15.60
2019-04-01T11:43:23.944Z,15.70
2019-04-01T11:45:53.335Z,15.70
2019-04-01T11:48:22.979Z,15.80
2019-04-01T11:50:51.890Z,15.90
2019-04-01T11:53:21.088Z,16.00
2019-04-01T11:55:49.898Z,16.00
2019-04-01T11:58:19.170Z,16.20
2019-04-01T12:00:48.519Z,16.30
2019-04-01T12:03:17.787Z,16.40
2019-04-01T12:05:47.211Z,16.40
2019-04-01T12:08:16.231Z,16.50
2019-04-01T12:10:45.079Z,16.60
2019-04-01T12:13:14.192Z,16.70
2019-04-01T12:15:43.950Z,16.70
2019-04-01T12:18:13.101Z,16.70
2019-04-01T12:20:42.065Z,16.80
2019-04-01T12:23:11.472Z,16.80
2019-04-01T12:25:40.625Z,16.90
2019-04-01T12:28:09.495Z,16.90
2019-04-01T12:30:38.384Z,17.00
2019-04-01T12:33:07.487Z,17.10
2019-04-01T12:35:38.611Z,17.20
2019-04-01T12:38:07.722Z,17.30
2019-04-01T12:40:38.646Z,17.30
2019-04-01T12:43:09.547Z,17.40
2019-04-01T12:45:39.226Z,17.50
2019-04-01T12:48:09.335Z,17.60
2019-04-01T12:50:38.732Z,17.60
2019-04-01T12:53:08.335Z,17.50
2019-04-01T12:55:38.026Z,17.60
2019-04-01T12:58:07.400Z,17.60
2019-04-01T13:00:37.128Z,17.70
2019-04-01T13:03:06.606Z,17.80
2019-04-01T13:05:35.759Z,17.80
2019-04-01T13:08:04.620Z,17.90
2019-04-01T13:10:35.161Z,17.90
2019-04-01T13:13:04.249Z,17.90
2019-04-01T13:15:34.847Z,17.90
2019-04-01T13:18:04.133Z,17.90
2019-04-01T13:20:38.211Z,17.90
2019-04-01T13:23:04.124Z,17.80
2019-04-01T13:25:34.289Z,17.90
2019-04-01T13:28:03.269Z,18.00
2019-04-01T13:30:32.201Z,18.10
2019-04-01T13:33:01.582Z,18.20
2019-04-01T13:35:30.704Z,18.20
2019-04-01T13:37:59.924Z,18.20
2019-04-01T13:40:29.145Z,18.30
2019-04-01T13:42:59.100Z,18.30
2019-04-01T13:45:31.546Z,18.40
2019-04-01T13:47:58.955Z,18.50
2019-04-01T13:50:28.018Z,18.50
2019-04-01T13:52:57.870Z,18.60
2019-04-01T13:55:27.618Z,18.60
2019-04-01T13:57:57.460Z,18.50
2019-04-01T14:00:27.603Z,18.60
2019-04-01T14:02:56.688Z,18.60
2019-04-01T14:05:26.423Z,18.70
2019-04-01T14:07:55.526Z,18.70
2019-04-01T14:10:24.888Z,18.80
2019-04-01T14:12:54.320Z,18.80
2019-04-01T14:15:23.114Z,18.90
2019-04-01T14:17:52.210Z,18.90
2019-04-01T14:20:22.735Z,19.00
2019-04-01T14:22:53.537Z,19.00
2019-04-01T14:25:25.699Z,19.00
2019-04-01T14:27:55.524Z,19.00
2019-04-01T14:30:25.113Z,19.10
2019-04-01T14:32:54.371Z,19.10
2019-04-01T14:35:23.842Z,19.10
2019-04-01T14:37:53.526Z,19.00
2019-04-01T14:40:22.844Z,19.00
2019-04-01T14:42:51.983Z,19.00
2019-04-01T14:45:22.812Z,18.90
2019-04-01T14:47:57.643Z,18.90
2019-04-01T14:50:22.955Z,18.80
2019-04-01T14:52:52.279Z,18.80
2019-04-01T14:55:24.139Z,18.90
2019-04-01T14:57:54.848Z,18.90
2019-04-01T15:00:24.525Z,19.00
2019-04-01T15:02:53.804Z,19.00
2019-04-01T15:05:23.630Z,18.90
2019-04-01T15:07:52.815Z,18.80
2019-04-01T15:10:21.791Z,18.60
2019-04-01T15:13:04.535Z,18.80
2019-04-01T15:15:21.982Z,18.90
2019-04-01T15:17:51.059Z,19.10
2019-04-01T15:20:20.505Z,19.30
2019-04-01T15:22:49.617Z,19.40
2019-04-01T15:25:18.604Z,19.50
2019-04-01T15:27:47.415Z,19.50
2019-04-01T15:30:16.775Z,19.50
2019-04-01T15:32:46.822Z,19.50
2019-04-01T15:35:15.973Z,19.60
2019-04-01T15:37:48.130Z,19.60
2019-04-01T15:40:18.282Z,19.70
2019-04-01T15:42:47.749Z,19.80
2019-04-01T15:45:16.828Z,19.80
2019-04-01T15:47:45.729Z,19.60
2019-04-01T15:50:27.932Z,19.30
2019-04-01T15:52:45.776Z,19.00
2019-04-01T15:55:14.759Z,18.80
2019-04-01T15:57:44.145Z,18.70
2019-04-01T16:00:13.188Z,18.50
2019-04-01T16:02:42.465Z,18.40
2019-04-01T16:05:11.873Z,18.30
2019-04-01T16:07:41.800Z,18.20
2019-04-01T16:10:11.318Z,18.10
2019-04-01T16:12:40.853Z,18.00
2019-04-01T16:15:10.448Z,17.80
2019-04-01T16:17:39.681Z,17.70
2019-04-01T16:20:08.719Z,17.60
2019-04-01T16:22:37.876Z,17.40
2019-04-01T16:25:07.255Z,17.30
2019-04-01T16:27:36.108Z,17.10
2019-04-01T16:30:05.324Z,17.00
2019-04-01T16:32:34.797Z,16.80
2019-04-01T16:35:03.842Z,16.70
2019-04-01T16:37:33.237Z,16.70
2019-04-01T16:40:05.795Z,16.60
2019-04-01T16:42:33.754Z,16.60
2019-04-01T16:45:02.636Z,16.60
2019-04-01T16:47:31.835Z,16.50
2019-04-01T16:50:00.937Z,16.50
2019-04-01T16:52:30.623Z,16.40
2019-04-01T16:55:02.136Z,16.30
2019-04-01T16:57:31.893Z,16.30
2019-04-01T17:00:00.948Z,16.20
2019-04-01T17:02:32.892Z,16.10
2019-04-01T17:05:04.322Z,16.10
2019-04-01T17:07:34.170Z,16.00
2019-04-01T17:10:04.299Z,15.90
2019-04-01T17:12:34.605Z,15.90
2019-04-01T17:15:04.136Z,15.80
2019-04-01T17:17:33.669Z,15.70
2019-04-01T17:20:02.567Z,15.60
2019-04-01T17:22:32.180Z,15.60
2019-04-01T17:25:01.577Z,15.50
2019-04-01T17:27:30.687Z,15.50
2019-04-01T17:29:59.756Z,15.40
2019-04-01T17:32:28.522Z,15.30
2019-04-01T17:34:58.016Z,15.30
2019-04-01T17:37:27.032Z,15.20
2019-04-01T17:39:56.510Z,15.10
2019-04-01T17:42:25.687Z,15.00
2019-04-01T17:44:56.848Z,15.00
2019-04-01T17:47:27.421Z,14.90
2019-04-01T17:49:56.893Z,14.80
2019-04-01T17:52:25.985Z,14.70
2019-04-01T17:54:54.877Z,14.60
2019-04-01T17:57:23.952Z,14.50
2019-04-01T17:59:52.759Z,14.40
2019-04-01T18:02:27.645Z,14.30
2019-04-01T18:04:56.659Z,14.20
2019-04-01T18:07:25.956Z,14.10
2019-04-01T18:09:54.722Z,14.00
2019-04-01T18:12:24.033Z,13.90
2019-04-01T18:14:53.051Z,13.90
2019-04-01T18:17:22.232Z,13.80
2019-04-01T18:19:51.364Z,13.70
2019-04-01T18:22:20.189Z,13.60
2019-04-01T18:24:49.316Z,13.50
2019-04-01T18:27:18.769Z,13.40
2019-04-01T18:29:47.948Z,13.30
2019-04-01T18:32:17.058Z,13.20
2019-04-01T18:34:46.129Z,13.10
2019-04-01T18:37:15.480Z,13.10
2019-04-01T18:39:48.404Z,12.90
2019-04-01T18:42:15.238Z,12.90
2019-04-01T18:44:44.015Z,12.80
2019-04-01T18:47:13.368Z,12.70
2019-04-01T18:49:42.633Z,12.60
2019-04-01T18:52:11.836Z,12.50
2019-04-01T18:54:40.611Z,12.40
2019-04-01T18:57:09.468Z,12.30
2019-04-01T18:59:38.245Z,12.20
2019-04-01T19:02:07.094Z,12.10
2019-04-01T19:04:36.361Z,12.10
2019-04-01T19:07:05.264Z,12.00
2019-04-01T19:09:34.034Z,12.00
2019-04-01T19:12:04.400Z,11.90
2019-04-01T19:14:33.892Z,11.80
2019-04-01T19:17:02.959Z,11.80
2019-04-01T19:19:31.739Z,11.70
2019-04-01T19:22:00.564Z,11.70
2019-04-01T19:24:29.584Z,11.70
2019-04-01T19:26:58.624Z,11.60
2019-04-01T19:29:27.483Z,11.60
2019-04-01T19:31:56.778Z,11.60
2019-04-01T19:34:26.892Z,11.50
2019-04-01T19:36:56.484Z,11.50
2019-04-01T19:39:25.765Z,11.50
2019-04-01T19:41:54.886Z,11.40
2019-04-01T19:44:23.900Z,11.40
2019-04-01T19:46:53.029Z,11.40
2019-04-01T19:49:21.820Z,11.30
2019-04-01T19:51:50.947Z,11.30
2019-04-01T19:54:30.624Z,11.20
2019-04-01T19:56:50.887Z,11.20
2019-04-01T19:59:21.214Z,11.10
2019-04-01T20:01:50.968Z,11.10
2019-04-01T20:04:20.256Z,11.10
2019-04-01T20:06:49.352Z,11.10
2019-04-01T20:09:20.880Z,11.00
2019-04-01T20:11:53.172Z,11.00
2019-04-01T20:14:22.224Z,10.90
2019-04-01T20:16:51.003Z,10.90
2019-04-01T20:19:20.293Z,10.90
2019-04-01T20:21:49.654Z,10.90
2019-04-01T20:24:19.327Z,10.90
2019-04-01T20:26:48.847Z,10.80
2019-04-01T20:29:17.868Z,10.80
2019-04-01T20:31:46.965Z,10.80
2019-04-01T20:34:20.055Z,10.70
2019-04-01T20:36:46.903Z,10.70
2019-04-01T20:39:16.158Z,10.70
2019-04-01T20:41:45.395Z,10.60
2019-04-01T20:44:14.211Z,10.60
2019-04-01T20:46:43.393Z,10.60
2019-04-01T20:49:12.576Z,10.50
2019-04-01T20:51:41.673Z,10.50
2019-04-01T20:54:10.771Z,10.50
2019-04-01T20:56:39.682Z,10.50
2019-04-01T20:59:10.280Z,10.50
2019-04-01T21:01:39.902Z,10.50
2019-04-01T21:04:09.115Z,10.40
2019-04-01T21:06:37.886Z,10.40
2019-04-01T21:09:08.937Z,10.30
2019-04-01T21:11:39.236Z,10.30
2019-04-01T21:14:09.039Z,10.30
2019-04-01T21:16:38.084Z,10.20
2019-04-01T21:19:06.872Z,10.20
2019-04-01T21:21:35.880Z,10.20
2019-04-01T21:24:05.383Z,10.10
2019-04-01T21:26:34.642Z,10.20
2019-04-01T21:29:03.575Z,10.10
2019-04-01T21:31:32.576Z,10.10
2019-04-01T21:34:01.624Z,10.10
2019-04-01T21:36:30.702Z,10.00
2019-04-01T21:39:01.051Z,10.00
2019-04-01T21:41:30.504Z,10.00
2019-04-01T21:43:59.295Z,9.90
2019-04-01T21:46:28.300Z,9.90
2019-04-01T21:48:57.648Z,9.80
2019-04-01T21:51:26.893Z,9.80
2019-04-01T21:53:55.992Z,9.80
2019-04-01T21:56:24.760Z,9.80
2019-04-01T21:58:53.778Z,9.70
2019-04-01T22:01:22.870Z,9.70
2019-04-01T22:03:52.131Z,9.70
2019-04-01T22:06:21.206Z,9.60
2019-04-01T22:08:50.372Z,9.60
2019-04-01T22:11:19.403Z,9.60
2019-04-01T22:13:48.441Z,9.60
2019-04-01T22:16:18.172Z,9.60
2019-04-01T22:18:47.951Z,9.50
2019-04-01T22:21:17.218Z,9.50
2019-04-01T22:23:46.350Z,9.50
2019-04-01T22:26:15.605Z,9.50
2019-04-01T22:28:44.696Z,9.40
2019-04-01T22:31:15.170Z,9.40
2019-04-01T22:33:44.038Z,9.40
2019-04-01T22:36:13.086Z,9.40
2019-04-01T22:38:42.112Z,9.40
2019-04-01T22:41:11.269Z,9.30
2019-04-01T22:43:40.108Z,9.30
2019-04-01T22:46:08.973Z,9.30
2019-04-01T22:48:37.998Z,9.30
2019-04-01T22:51:08.632Z,9.30
2019-04-01T22:53:38.491Z,9.20
2019-04-01T22:56:07.386Z,9.20
2019-04-01T22:58:36.140Z,9.20
2019-04-01T23:01:05.312Z,9.20
2019-04-01T23:03:34.712Z,9.10
2019-04-01T23:06:03.910Z,9.10
2019-04-01T23:08:33.008Z,9.10
2019-04-01T23:11:02.209Z,9.10
2019-04-01T23:13:31.277Z,9.00
2019-04-01T23:16:00.705Z,9.00
2019-04-01T23:18:30.409Z,9.00
2019-04-01T23:20:59.191Z,9.00
2019-04-01T23:23:28.341Z,9.00
2019-04-01T23:25:57.940Z,8.90
2019-04-01T23:28:26.765Z,8.90
2019-04-01T23:30:58.708Z,8.90
2019-04-01T23:33:27.467Z,8.90
2019-04-01T23:35:56.545Z,8.90
2019-04-01T23:38:25.623Z,8.90
2019-04-01T23:40:54.444Z,8.80
2019-04-01T23:43:23.621Z,8.80
2019-04-01T23:45:52.498Z,8.80
2019-04-01T23:48:21.248Z,8.80
2019-04-01T23:50:50.300Z,8.80
2019-04-01T23:53:19.969Z,8.80
2019-04-01T23:55:49.298Z,8.80
2019-04-01T23:58:18.813Z,8.70
